Terminal Aerodrome Forecast
Issued by NWS

Home | Current Version | Previous Version | Text Only | Print | Product List | Glossary On
Versions: 1 2 3 4 5 6 7 8 9 10 11 12 13 14 15 16 17 18 19 20 21 22 23 24
000
FTUS42 KMFL 210542
TAFTMB
TAF
KTMB 210542Z 2106/2206 00000KT P6SM FEW025 SCT060 BKN250
     FM211400 10011KT P6SM SCT035 BKN060
     FM212300 09006KT P6SM SCT030 SCT200=

USA.gov is the U.S. government's official web portal to all federal, state and local government web resources and services.